Terminal Aerodrome Forecast
Issued by NWS Cleveland, OH

Home | Current Version | Previous Version | Graphics & Text | Print | Product List | Glossary On
Versions: 1 2 3 4 5 6 7 8 9 10 11 12 13 14 15 16
000
FTUS41 KCLE 311132
TAFERI
TAF
KERI 311132Z 3112/0112 21007KT P6SM SKC
     FM311600 26012G20KT P6SM SCT060
     FM010000 23010KT P6SM VCTS BKN050CB OVC150
     FM010400 23006KT P6SM SCT150=

USA.gov is the U.S. government's official web portal to all federal, state and local government web resources and services.